VJT402 EGGW-EBBR
Flight info
| Callsign | VJT402 |
|---|---|
| Flight time | 0h 41m |
| Altitude | 29000 |
| Route | MATCH DCT DAGGA DCT ITVIP DCT MADUX DCT KOK |
| Aircraft | CL60/M-ICAO/HB1D1 |
Departure
| Time | 2026-04-30 11:27 |
|---|---|
| Airport | London Luton Airport (EGGW) |
Arrival
| Time | 2026-04-30 12:08 |
|---|---|
| Airport | Brussels Airport (EBBR) |
| Time | Latitude | Longitude | Altitude | Speed | Heading |
|---|---|---|---|---|---|
| 2026-04-30 11:04 | 51.87714 | -0.37812 | 526 ft | 0 kts | 205° |
| 2026-04-30 11:19 | 51.87712 | -0.37814 | 526 ft | 0 kts | 205° |
| 2026-04-30 11:22 | 51.87728 | -0.37825 | 526 ft | 5 kts | 18° |
| 2026-04-30 11:22 | 51.87756 | -0.37783 | 527 ft | 6 kts | 60° |
| 2026-04-30 11:23 | 51.87747 | -0.37715 | 526 ft | 8 kts | 112° |
| 2026-04-30 11:23 | 51.87717 | -0.37612 | 525 ft | 11 kts | 116° |
| 2026-04-30 11:23 | 51.87586 | -0.37437 | 527 ft | 14 kts | 186° |
| 2026-04-30 11:24 | 51.87508 | -0.37529 | 528 ft | 15 kts | 250° |
| 2026-04-30 11:24 | 51.87473 | -0.37715 | 527 ft | 19 kts | 253° |
| 2026-04-30 11:24 | 51.87429 | -0.37954 | 520 ft | 25 kts | 252° |
| 2026-04-30 11:25 | 51.87361 | -0.38070 | 515 ft | 0 kts | 204° |
| 2026-04-30 11:25 | 51.87359 | -0.38071 | 515 ft | 3 kts | 204° |
| 2026-04-30 11:26 | 51.87252 | -0.38066 | 513 ft | 8 kts | 75° |
| 2026-04-30 11:26 | 51.87254 | -0.38055 | 514 ft | 0 kts | 73° |
| 2026-04-30 11:26 | 51.87254 | -0.38053 | 514 ft | 3 kts | 73° |
| 2026-04-30 11:27 | 51.87352 | -0.37490 | 529 ft | 98 kts | 76° |
| 2026-04-30 11:27 | 51.87594 | -0.36075 | 674 ft | 153 kts | 75° |
| 2026-04-30 11:27 | 51.87872 | -0.34408 | 1331 ft | 153 kts | 80° |
| 2026-04-30 11:27 | 51.88156 | -0.32742 | 1923 ft | 163 kts | 79° |
| 2026-04-30 11:28 | 51.88786 | -0.29051 | 3568 ft | 180 kts | 81° |
| 2026-04-30 11:28 | 51.89114 | -0.27121 | 4480 ft | 182 kts | 81° |
| 2026-04-30 11:28 | 51.89443 | -0.25178 | 5382 ft | 183 kts | 81° |
| 2026-04-30 11:29 | 51.89623 | -0.23210 | 6247 ft | 178 kts | 99° |
| 2026-04-30 11:29 | 51.89210 | -0.21407 | 7082 ft | 175 kts | 127° |
| 2026-04-30 11:29 | 51.87165 | -0.19406 | 8715 ft | 178 kts | 153° |
| 2026-04-30 11:30 | 51.84804 | -0.17702 | 9976 ft | 205 kts | 153° |
| 2026-04-30 11:30 | 51.83461 | -0.16732 | 10668 ft | 219 kts | 153° |
| 2026-04-30 11:30 | 51.82055 | -0.15720 | 11437 ft | 227 kts | 153° |
| 2026-04-30 11:31 | 51.80623 | -0.14691 | 12223 ft | 233 kts | 153° |
| 2026-04-30 11:31 | 51.79139 | -0.13626 | 13024 ft | 237 kts | 153° |
| 2026-04-30 11:31 | 51.77634 | -0.12546 | 13834 ft | 239 kts | 153° |
| 2026-04-30 11:31 | 51.76292 | -0.11093 | 14640 ft | 239 kts | 131° |
| 2026-04-30 11:32 | 51.75554 | -0.08729 | 15463 ft | 242 kts | 101° |
| 2026-04-30 11:32 | 51.75486 | -0.06040 | 16261 ft | 244 kts | 94° |
| 2026-04-30 11:32 | 51.75166 | -0.03460 | 16995 ft | 238 kts | 121° |
| 2026-04-30 11:33 | 51.73333 | 0.00902 | 18531 ft | 236 kts | 126° |
| 2026-04-30 11:33 | 51.72418 | 0.03051 | 19175 ft | 238 kts | 125° |
| 2026-04-30 11:33 | 51.71479 | 0.05277 | 19819 ft | 240 kts | 125° |
| 2026-04-30 11:33 | 51.70545 | 0.07493 | 20451 ft | 242 kts | 125° |
| 2026-04-30 11:34 | 51.69613 | 0.09705 | 21053 ft | 244 kts | 125° |
| 2026-04-30 11:34 | 51.68657 | 0.11974 | 21660 ft | 246 kts | 125° |
| 2026-04-30 11:34 | 51.67695 | 0.14253 | 22231 ft | 249 kts | 124° |
| 2026-04-30 11:34 | 51.66726 | 0.16552 | 22760 ft | 253 kts | 124° |
| 2026-04-30 11:35 | 51.65733 | 0.18905 | 23319 ft | 255 kts | 124° |
| 2026-04-30 11:35 | 51.64741 | 0.21257 | 23902 ft | 256 kts | 124° |
| 2026-04-30 11:35 | 51.63738 | 0.23631 | 24474 ft | 258 kts | 124° |
| 2026-04-30 11:35 | 51.62737 | 0.26000 | 24988 ft | 261 kts | 124° |
| 2026-04-30 11:36 | 51.61720 | 0.28406 | 25565 ft | 262 kts | 124° |
| 2026-04-30 11:36 | 51.60697 | 0.30823 | 26114 ft | 263 kts | 124° |
| 2026-04-30 11:36 | 51.59668 | 0.33255 | 26645 ft | 265 kts | 124° |
| 2026-04-30 11:36 | 51.58631 | 0.35701 | 27146 ft | 267 kts | 124° |
| 2026-04-30 11:37 | 51.57586 | 0.38164 | 27647 ft | 268 kts | 124° |
| 2026-04-30 11:37 | 51.56533 | 0.40646 | 28106 ft | 270 kts | 124° |
| 2026-04-30 11:37 | 51.55471 | 0.43145 | 28561 ft | 272 kts | 124° |
| 2026-04-30 11:37 | 51.54413 | 0.45634 | 29019 ft | 274 kts | 124° |
| 2026-04-30 11:38 | 51.53319 | 0.48204 | 29258 ft | 283 kts | 124° |
| 2026-04-30 11:38 | 51.52184 | 0.50867 | 29274 ft | 297 kts | 124° |
| 2026-04-30 11:38 | 51.51000 | 0.53643 | 29275 ft | 311 kts | 124° |
| 2026-04-30 11:38 | 51.49755 | 0.56558 | 29275 ft | 322 kts | 124° |
| 2026-04-30 11:39 | 51.47207 | 0.62518 | 29255 ft | 322 kts | 124° |
| 2026-04-30 11:39 | 51.44690 | 0.68393 | 29265 ft | 329 kts | 125° |
| 2026-04-30 11:40 | 51.43354 | 0.71504 | 29275 ft | 342 kts | 125° |
| 2026-04-30 11:40 | 51.42003 | 0.74648 | 29269 ft | 354 kts | 125° |
| 2026-04-30 11:40 | 51.40579 | 0.77958 | 29269 ft | 365 kts | 125° |
| 2026-04-30 11:40 | 51.39126 | 0.81329 | 29262 ft | 375 kts | 124° |
| 2026-04-30 11:41 | 51.36098 | 0.88345 | 29260 ft | 392 kts | 125° |
| 2026-04-30 11:41 | 51.32949 | 0.95620 | 29262 ft | 406 kts | 124° |
| 2026-04-30 11:42 | 51.29825 | 1.03002 | 29237 ft | 412 kts | 119° |
| 2026-04-30 11:42 | 51.28792 | 1.07251 | 29247 ft | 415 kts | 104° |
| 2026-04-30 11:42 | 51.28451 | 1.11815 | 29230 ft | 418 kts | 95° |
| 2026-04-30 11:43 | 51.28096 | 1.21060 | 29230 ft | 418 kts | 95° |
| 2026-04-30 11:43 | 51.27724 | 1.30325 | 29236 ft | 419 kts | 96° |
| 2026-04-30 11:44 | 51.27343 | 1.39582 | 29244 ft | 419 kts | 95° |
| 2026-04-30 11:44 | 51.26956 | 1.48815 | 29252 ft | 418 kts | 95° |
| 2026-04-30 11:45 | 51.26561 | 1.58044 | 29249 ft | 418 kts | 95° |
| 2026-04-30 11:45 | 51.26158 | 1.67266 | 29248 ft | 418 kts | 96° |
| 2026-04-30 11:46 | 51.25748 | 1.76478 | 29254 ft | 418 kts | 96° |
| 2026-04-30 11:46 | 51.25328 | 1.85753 | 29250 ft | 418 kts | 96° |
| 2026-04-30 11:47 | 51.24904 | 1.94946 | 29254 ft | 418 kts | 96° |
| 2026-04-30 11:47 | 51.24473 | 2.04132 | 29265 ft | 419 kts | 96° |
| 2026-04-30 11:48 | 51.24031 | 2.13402 | 29257 ft | 419 kts | 96° |
| 2026-04-30 11:48 | 51.23583 | 2.22631 | 29256 ft | 418 kts | 96° |
| 2026-04-30 11:49 | 51.23128 | 2.31841 | 29269 ft | 418 kts | 95° |
| 2026-04-30 11:49 | 51.22048 | 2.40832 | 29285 ft | 417 kts | 114° |
| 2026-04-30 11:50 | 51.20509 | 2.44765 | 29278 ft | 419 kts | 127° |
| 2026-04-30 11:50 | 51.18621 | 2.48287 | 29275 ft | 420 kts | 129° |
| 2026-04-30 11:50 | 51.14839 | 2.55281 | 29282 ft | 419 kts | 129° |
| 2026-04-30 11:51 | 51.11068 | 2.62289 | 29276 ft | 418 kts | 127° |
| 2026-04-30 11:51 | 51.09589 | 2.66229 | 29286 ft | 417 kts | 112° |
| 2026-04-30 11:51 | 51.08810 | 2.70627 | 29268 ft | 418 kts | 102° |
| 2026-04-30 11:52 | 51.07732 | 2.79732 | 28218 ft | 428 kts | 101° |
| 2026-04-30 11:52 | 51.07175 | 2.84360 | 26764 ft | 427 kts | 101° |
| 2026-04-30 11:52 | 51.06628 | 2.88899 | 25848 ft | 414 kts | 101° |
| 2026-04-30 11:53 | 51.06089 | 2.93350 | 24994 ft | 402 kts | 101° |
| 2026-04-30 11:53 | 51.05570 | 2.97624 | 24147 ft | 392 kts | 101° |
| 2026-04-30 11:53 | 51.05060 | 3.01798 | 23298 ft | 382 kts | 101° |
| 2026-04-30 11:53 | 51.04563 | 3.05864 | 22456 ft | 374 kts | 101° |
| 2026-04-30 11:54 | 51.04077 | 3.09822 | 21593 ft | 366 kts | 101° |
| 2026-04-30 11:54 | 51.03595 | 3.13733 | 20762 ft | 359 kts | 101° |
| 2026-04-30 11:54 | 51.03120 | 3.17581 | 19917 ft | 353 kts | 101° |
| 2026-04-30 11:54 | 51.02653 | 3.21356 | 19045 ft | 349 kts | 101° |
| 2026-04-30 11:55 | 51.02194 | 3.25049 | 18202 ft | 344 kts | 101° |
| 2026-04-30 11:55 | 51.01736 | 3.28720 | 17382 ft | 340 kts | 101° |
| 2026-04-30 11:55 | 51.01277 | 3.32397 | 16502 ft | 336 kts | 101° |
| 2026-04-30 11:55 | 51.00829 | 3.35973 | 15660 ft | 333 kts | 101° |
| 2026-04-30 11:56 | 51.00384 | 3.39522 | 14799 ft | 330 kts | 101° |
| 2026-04-30 11:56 | 50.99937 | 3.43067 | 13979 ft | 327 kts | 101° |
| 2026-04-30 11:56 | 50.99502 | 3.46516 | 13108 ft | 323 kts | 101° |
| 2026-04-30 11:56 | 50.99060 | 3.50005 | 12261 ft | 320 kts | 101° |
| 2026-04-30 11:57 | 50.98631 | 3.53390 | 11399 ft | 316 kts | 101° |
| 2026-04-30 11:57 | 50.98202 | 3.56757 | 10551 ft | 312 kts | 101° |
| 2026-04-30 11:57 | 50.97780 | 3.60075 | 9712 ft | 309 kts | 101° |
| 2026-04-30 11:57 | 50.97356 | 3.63391 | 8849 ft | 305 kts | 101° |
| 2026-04-30 11:58 | 50.96944 | 3.66605 | 8016 ft | 301 kts | 102° |
| 2026-04-30 11:58 | 50.96533 | 3.69814 | 7558 ft | 293 kts | 102° |
| 2026-04-30 11:58 | 50.96134 | 3.72919 | 7338 ft | 278 kts | 102° |
| 2026-04-30 11:58 | 50.95761 | 3.75815 | 7294 ft | 259 kts | 103° |
| 2026-04-30 11:59 | 50.95415 | 3.78502 | 7282 ft | 241 kts | 103° |
| 2026-04-30 11:59 | 50.95082 | 3.81080 | 6932 ft | 239 kts | 103° |
| 2026-04-30 11:59 | 50.94745 | 3.83677 | 6462 ft | 240 kts | 102° |
| 2026-04-30 11:59 | 50.94414 | 3.86219 | 6283 ft | 237 kts | 102° |
| 2026-04-30 12:00 | 50.94081 | 3.88777 | 6268 ft | 239 kts | 102° |
| 2026-04-30 12:00 | 50.93744 | 3.91359 | 6268 ft | 241 kts | 102° |
| 2026-04-30 12:00 | 50.93402 | 3.93970 | 6260 ft | 241 kts | 102° |
| 2026-04-30 12:00 | 50.93059 | 3.96591 | 6255 ft | 242 kts | 102° |
| 2026-04-30 12:01 | 50.92688 | 3.99173 | 6260 ft | 238 kts | 109° |
| 2026-04-30 12:01 | 50.91980 | 4.01497 | 5954 ft | 235 kts | 119° |
| 2026-04-30 12:01 | 50.91171 | 4.03756 | 5508 ft | 236 kts | 118° |
| 2026-04-30 12:01 | 50.90375 | 4.06000 | 5083 ft | 235 kts | 118° |
| 2026-04-30 12:02 | 50.89586 | 4.08224 | 4689 ft | 233 kts | 118° |
| 2026-04-30 12:02 | 50.88789 | 4.10470 | 4284 ft | 232 kts | 118° |
| 2026-04-30 12:02 | 50.88003 | 4.12685 | 3879 ft | 231 kts | 117° |
| 2026-04-30 12:02 | 50.87219 | 4.14895 | 3443 ft | 231 kts | 117° |
| 2026-04-30 12:03 | 50.86512 | 4.17101 | 3074 ft | 220 kts | 107° |
| 2026-04-30 12:03 | 50.86612 | 4.21419 | 3054 ft | 177 kts | 82° |
| 2026-04-30 12:03 | 50.86816 | 4.23221 | 3048 ft | 164 kts | 83° |
| 2026-04-30 12:04 | 50.87013 | 4.25026 | 3010 ft | 164 kts | 83° |
| 2026-04-30 12:04 | 50.87207 | 4.26786 | 3005 ft | 164 kts | 83° |
| 2026-04-30 12:04 | 50.87401 | 4.28505 | 3012 ft | 148 kts | 83° |
| 2026-04-30 12:04 | 50.87573 | 4.30029 | 3001 ft | 137 kts | 83° |
| 2026-04-30 12:05 | 50.87733 | 4.31484 | 2909 ft | 133 kts | 83° |
| 2026-04-30 12:05 | 50.87866 | 4.32911 | 2504 ft | 130 kts | 85° |
| 2026-04-30 12:05 | 50.87953 | 4.34266 | 2052 ft | 120 kts | 88° |
| 2026-04-30 12:05 | 50.87989 | 4.35521 | 1655 ft | 109 kts | 91° |
| 2026-04-30 12:06 | 50.88016 | 4.36710 | 1354 ft | 109 kts | 89° |
| 2026-04-30 12:06 | 50.88103 | 4.37891 | 1178 ft | 106 kts | 85° |
| 2026-04-30 12:06 | 50.88244 | 4.39077 | 1041 ft | 111 kts | 78° |
| 2026-04-30 12:06 | 50.88483 | 4.40351 | 905 ft | 126 kts | 72° |
| 2026-04-30 12:07 | 50.88803 | 4.41604 | 717 ft | 123 kts | 68° |
| 2026-04-30 12:07 | 50.89156 | 4.42908 | 627 ft | 133 kts | 71° |
| 2026-04-30 12:07 | 50.89508 | 4.44185 | 417 ft | 124 kts | 67° |
| 2026-04-30 12:07 | 50.89850 | 4.45422 | 237 ft | 121 kts | 65° |
| 2026-04-30 12:08 | 50.90199 | 4.46632 | 130 ft | 114 kts | 63° |
| 2026-04-30 12:08 | 50.90497 | 4.47651 | 107 ft | 83 kts | 66° |
| 2026-04-30 12:08 | 50.90647 | 4.48175 | 107 ft | 17 kts | 67° |
| 2026-04-30 12:08 | 50.90654 | 4.48289 | 107 ft | 5 kts | 108° |
| 2026-04-30 12:09 | 50.90648 | 4.48295 | 107 ft | 0 kts | 180° |
| 2026-04-30 12:09 | 50.90655 | 4.48292 | 107 ft | 0 kts | 171° |
| 2026-04-30 12:10 | 50.90651 | 4.48292 | 107 ft | 8 kts | 180° |
| 2026-04-30 12:11 | 50.90511 | 4.48151 | 109 ft | 27 kts | 216° |
| 2026-04-30 12:11 | 50.90392 | 4.47924 | 111 ft | 29 kts | 244° |
| 2026-04-30 12:11 | 50.90301 | 4.47617 | 111 ft | 31 kts | 248° |
| 2026-04-30 12:11 | 50.90224 | 4.47424 | 112 ft | 5 kts | 156° |
| 2026-04-30 12:12 | 50.90161 | 4.47481 | 113 ft | 13 kts | 156° |
| 2026-04-30 12:12 | 50.90069 | 4.47547 | 118 ft | 15 kts | 153° |
| 2026-04-30 12:12 | 50.89975 | 4.47602 | 122 ft | 14 kts | 190° |
| 2026-04-30 12:12 | 50.89917 | 4.47462 | 123 ft | 17 kts | 245° |
| 2026-04-30 12:13 | 50.89862 | 4.47270 | 122 ft | 21 kts | 245° |
| 2026-04-30 12:13 | 50.89834 | 4.47115 | 123 ft | 9 kts | 346° |
| 2026-04-30 12:13 | 50.89883 | 4.47082 | 121 ft | 1 kts | 335° |
| 2026-04-30 12:13 | 50.89885 | 4.47081 | 121 ft | 0 kts | 335° |